Time;durP1;ratioP1;P1;durP2;ratioP2;P2;SDS_P1;SDS_P2;PMS_P1;PMS_P2;Temp;Humidity;BMP_temperature;BMP_pressure;BME280_temperature;BME280_humidity;BME280_pressure;Samples;Min_cycle;Max_cycle;Signal;HPM_P1;HPM_P2
2021/05/24 00:02:05;;;;;;;3.40;1.70;;;11.60;91.10;;;;;;4972811;28;20046;-70
2021/05/24 00:04:30;;;;;;;4.38;1.73;;;11.50;91.20;;;;;;4972696;28;20042;-71
2021/05/24 00:06:58;;;;;;;4.20;1.60;;;11.50;91.20;;;;;;4972461;28;20045;-71
2021/05/24 00:09:24;;;;;;;6.72;1.40;;;11.40;91.50;;;;;;4972613;28;20058;-70
2021/05/24 00:12:01;;;;;;;6.57;1.83;;;11.40;91.70;;;;;;4974123;28;20047;-71
2021/05/24 00:14:29;;;;;;;9.83;1.73;;;11.30;91.60;;;;;;4972767;28;20118;-71
2021/05/24 00:17:03;;;;;;;6.47;1.70;;;11.30;91.90;;;;;;4972594;28;20275;-71
2021/05/24 00:19:29;;;;;;;4.78;1.50;;;11.30;91.90;;;;;;4955073;28;20055;-70
2021/05/24 00:21:55;;;;;;;8.18;1.90;;;11.30;91.80;;;;;;4971210;28;20031;-71
2021/05/24 00:24:21;;;;;;;4.60;1.95;;;11.30;92.10;;;;;;4972242;28;20368;-70
2021/05/24 00:26:48;;;;;;;4.55;1.67;;;11.20;92.10;;;;;;4973128;28;20027;-70
2021/05/24 00:29:18;;;;;;;9.23;2.72;;;11.20;92.10;;;;;;4955268;28;20085;-70
2021/05/24 00:31:45;;;;;;;10.23;2.08;;;11.20;92.40;;;;;;4955047;28;20050;-71
2021/05/24 00:34:12;;;;;;;3.03;1.70;;;11.10;92.50;;;;;;4972457;28;20117;-70
2021/05/24 00:36:38;;;;;;;10.53;1.93;;;11.10;92.70;;;;;;4972155;28;20042;-70
2021/05/24 00:39:07;;;;;;;6.70;1.85;;;11.10;92.60;;;;;;4971892;28;20257;-71
2021/05/24 00:41:41;;;;;;;3.25;1.70;;;11.10;92.70;;;;;;4972416;28;20076;-70
2021/05/24 00:44:15;;;;;;;5.93;1.75;;;11.10;92.70;;;;;;4971872;28;20618;-71
2021/05/24 00:46:41;;;;;;;3.65;1.38;;;11.10;92.80;;;;;;4971777;28;20073;-70
2021/05/24 00:49:07;;;;;;;4.05;2.00;;;11.20;93.00;;;;;;4971667;28;20058;-71
2021/05/24 00:51:34;;;;;;;8.40;1.60;;;11.00;93.00;;;;;;4971741;28;20488;-71
2021/05/24 00:54:01;;;;;;;3.58;1.58;;;11.00;93.10;;;;;;4971704;28;20031;-71
2021/05/24 00:56:32;;;;;;;3.15;1.60;;;11.00;93.10;;;;;;4973485;28;20029;-70
2021/05/24 00:58:59;;;;;;;7.50;2.35;;;11.10;93.10;;;;;;4954621;28;20337;-71
2021/05/24 01:01:28;;;;;;;6.65;1.95;;;11.00;93.20;;;;;;4971488;28;20093;-70
2021/05/24 01:04:18;;;;;;;6.57;1.98;;;11.00;93.20;;;;;;4971258;28;20141;-70
2021/05/24 01:06:47;;;;;;;3.40;1.80;;;11.00;93.10;;;;;;4971928;28;20034;-70
2021/05/24 01:09:13;;;;;;;3.22;1.50;;;11.00;93.20;;;;;;4954287;28;20022;-70
2021/05/24 01:15:01;;;;;;;5.75;1.80;;;10.80;93.60;;;;;;4987877;28;20061;-70
2021/05/24 01:17:26;;;;;;;4.38;1.70;;;10.80;93.70;;;;;;4972635;28;20015;-71
2021/05/24 01:20:15;;;;;;;3.35;1.27;;;10.70;93.80;;;;;;4954048;28;20039;-71
2021/05/24 01:22:48;;;;;;;3.72;1.90;;;10.70;93.70;;;;;;4971316;28;20038;-71
2021/05/24 01:25:14;;;;;;;5.25;1.67;;;10.70;93.90;;;;;;4971036;28;20035;-71
2021/05/24 01:27:40;;;;;;;4.35;1.60;;;10.70;93.80;;;;;;4970947;28;20045;-71
2021/05/24 01:30:14;;;;;;;2.33;1.58;;;10.70;93.90;;;;;;4970944;28;20567;-70
2021/05/24 01:32:40;;;;;;;2.72;1.75;;;10.70;94.00;;;;;;4972883;28;20023;-70
2021/05/24 01:35:07;;;;;;;5.53;2.05;;;10.70;94.00;;;;;;4975508;28;20486;-70
2021/05/24 01:37:32;;;;;;;5.97;1.70;;;10.60;94.10;;;;;;5009800;28;20042;-71
2021/05/24 01:40:03;;;;;;;5.68;1.83;;;10.70;94.20;;;;;;5010201;28;20030;-70
2021/05/24 01:42:52;;;;;;;5.40;1.48;;;10.60;94.20;;;;;;5009835;28;20072;-71
2021/05/24 01:45:39;;;;;;;3.33;1.40;;;10.70;94.30;;;;;;5009971;28;20343;-70
2021/05/24 01:48:05;;;;;;;7.82;2.15;;;10.70;94.20;;;;;;5009267;28;20018;-71
2021/05/24 01:50:32;;;;;;;4.90;1.83;;;10.70;94.00;;;;;;4993894;28;20029;-70
2021/05/24 01:52:57;;;;;;;6.18;1.98;;;10.70;94.00;;;;;;5009788;28;20029;-71
2021/05/24 01:55:23;;;;;;;5.55;1.67;;;10.80;94.00;;;;;;5009802;28;20026;-70
2021/05/24 01:57:49;;;;;;;5.38;1.83;;;10.80;94.10;;;;;;5009829;28;20030;-71
2021/05/24 02:00:18;;;;;;;6.00;1.60;;;10.70;93.80;;;;;;5009667;28;20030;-69
2021/05/24 02:03:10;;;;;;;5.35;1.70;;;10.70;94.10;;;;;;5011299;28;20038;-70
2021/05/24 02:05:37;;;;;;;2.38;1.40;;;10.70;94.60;;;;;;5009997;28;20050;-70
2021/05/24 02:08:13;;;;;;;4.90;1.60;;;10.60;94.70;;;;;;5009455;28;20087;-70
2021/05/24 02:10:45;;;;;;;4.13;1.67;;;10.70;94.80;;;;;;5009271;28;20033;-69
2021/05/24 02:13:11;;;;;;;5.10;1.85;;;10.60;94.80;;;;;;5009088;28;20030;-69
2021/05/24 02:15:38;;;;;;;7.20;1.70;;;10.70;94.70;;;;;;5009342;28;20054;-69
2021/05/24 02:18:23;;;;;;;5.40;1.65;;;10.50;94.80;;;;;;5009532;28;20045;-70
2021/05/24 02:21:09;;;;;;;2.22;1.33;;;10.60;94.90;;;;;;5010885;28;20152;-69
2021/05/24 02:26:42;;;;;;;3.72;1.55;;;10.50;95.10;;;;;;5007219;28;20107;-70
2021/05/24 02:29:08;;;;;;;5.43;1.85;;;10.40;95.10;;;;;;5009379;28;20046;-69
2021/05/24 02:31:38;;;;;;;5.00;1.75;;;10.40;95.00;;;;;;5008201;28;20054;-68
2021/05/24 02:34:05;;;;;;;3.17;1.65;;;10.40;95.20;;;;;;4970436;28;20031;-70
2021/05/24 02:36:32;;;;;;;4.10;1.88;;;10.40;95.20;;;;;;4970368;28;20066;-71
2021/05/24 02:39:52;;;;;;;1.90;1.52;;;10.40;95.20;;;;;;4970429;28;20049;-70
2021/05/24 02:42:20;;;;;;;3.17;1.83;;;10.30;95.10;;;;;;4989684;28;20855;-70
2021/05/24 02:44:45;;;;;;;4.60;1.50;;;10.30;95.20;;;;;;5011015;28;20034;-69
2021/05/24 02:47:11;;;;;;;5.20;1.50;;;10.30;95.30;;;;;;5009199;28;20096;-70
2021/05/24 02:49:38;;;;;;;3.90;1.33;;;10.30;95.30;;;;;;5010228;28;20041;-70
2021/05/24 02:52:04;;;;;;;1.73;1.33;;;10.30;95.20;;;;;;5012870;28;20037;-69
2021/05/24 02:54:31;;;;;;;5.05;1.48;;;10.30;95.10;;;;;;5009097;28;20038;-70
2021/05/24 02:56:57;;;;;;;5.78;1.77;;;10.30;95.00;;;;;;5014237;28;20028;-70
2021/05/24 02:59:24;;;;;;;3.40;1.02;;;10.30;94.90;;;;;;4995275;28;20042;-70
2021/05/24 03:01:50;;;;;;;4.30;1.48;;;10.40;95.00;;;;;;5012899;28;20068;-70
2021/05/24 03:04:18;;;;;;;3.30;1.35;;;10.40;94.80;;;;;;4995519;28;20041;-71
2021/05/24 03:06:44;;;;;;;6.05;1.40;;;10.40;94.70;;;;;;4995407;28;20164;-71
2021/05/24 03:09:10;;;;;;;4.85;1.45;;;10.40;94.80;;;;;;4991587;28;20407;-70
2021/05/24 03:11:36;;;;;;;5.68;1.63;;;10.30;94.80;;;;;;4995923;28;20117;-70
2021/05/24 03:14:02;;;;;;;2.72;1.20;;;10.30;94.80;;;;;;4994373;28;20045;-71
2021/05/24 03:16:28;;;;;;;3.65;1.52;;;10.40;94.80;;;;;;4994928;28;20399;-70
2021/05/24 03:18:53;;;;;;;1.95;1.05;;;10.30;94.80;;;;;;5012515;28;20041;-70
2021/05/24 03:22:09;;;;;;;4.82;1.23;;;10.40;95.10;;;;;;5012326;28;20490;-70
2021/05/24 03:25:24;;;;;;;4.50;1.38;;;10.40;94.90;;;;;;5012234;28;20486;-70
2021/05/24 03:27:52;;;;;;;4.18;1.40;;;10.30;94.90;;;;;;5012596;28;20053;-70
2021/05/24 03:30:18;;;;;;;;;;;10.30;94.90;;;;;;5012385;28;20037;-69
2021/05/24 03:33:33;;;;;;;3.85;1.30;;;10.20;95.00;;;;;;4996328;28;19906;-70
2021/05/24 03:35:59;;;;;;;6.18;1.58;;;10.20;95.00;;;;;;5011713;28;20096;-70
2021/05/24 03:38:25;;;;;;;2.10;1.05;;;10.20;95.00;;;;;;5013822;28;20026;-71
2021/05/24 03:40:50;;;;;;;1.42;1.10;;;10.20;95.10;;;;;;4994711;28;20077;-71
2021/05/24 03:43:50;;;;;;;2.28;1.35;;;10.30;95.30;;;;;;5012112;28;20100;-70
2021/05/24 03:46:45;;;;;;;4.10;1.15;;;10.30;95.10;;;;;;5012010;28;20097;-71
2021/05/24 03:49:15;;;;;;;3.38;1.10;;;10.30;95.10;;;;;;5011714;28;20087;-71
2021/05/24 03:52:04;;;;;;;3.50;1.08;;;10.30;95.00;;;;;;5011952;28;20046;-70
2021/05/24 03:54:30;;;;;;;5.22;0.88;;;10.40;95.10;;;;;;5011399;28;20133;-70
2021/05/24 03:56:56;;;;;;;6.70;1.42;;;10.40;95.10;;;;;;5013698;28;20026;-70
2021/05/24 03:59:21;;;;;;;2.97;1.10;;;10.40;95.20;;;;;;5012047;28;20034;-71
2021/05/24 04:01:49;;;;;;;2.05;1.10;;;10.40;95.20;;;;;;5010431;28;20044;-71
2021/05/24 04:04:16;;;;;;;3.45;0.80;;;10.40;95.20;;;;;;5011395;28;20026;-71
2021/05/24 04:06:43;;;;;;;2.88;1.20;;;10.40;95.20;;;;;;4994065;28;20127;-71
2021/05/24 04:09:11;;;;;;;2.55;1.10;;;10.40;95.20;;;;;;5011382;28;20029;-71
2021/05/24 04:11:37;;;;;;;2.78;1.00;;;10.40;95.20;;;;;;5013679;28;20053;-69
2021/05/24 04:14:03;;;;;;;2.72;0.82;;;10.50;95.20;;;;;;5011202;28;20451;-70
2021/05/24 04:19:52;;;;;;;13.80;2.13;;;10.50;95.20;;;;;;5008601;28;20080;-73
2021/05/24 04:22:29;;;;;;;2.33;1.15;;;10.60;95.30;;;;;;4993944;28;20395;-71
2021/05/24 04:24:54;;;;;;;2.25;0.95;;;10.50;95.30;;;;;;5011390;28;20045;-70
2021/05/24 04:27:49;;;;;;;1.73;0.90;;;10.60;95.20;;;;;;5011093;28;20348;-71
2021/05/24 04:30:15;;;;;;;4.40;1.38;;;10.60;95.30;;;;;;5011010;28;20029;-71
2021/05/24 04:32:41;;;;;;;2.88;1.25;;;10.60;95.30;;;;;;5012746;28;20065;-71
2021/05/24 04:35:11;;;;;;;3.22;1.10;;;10.70;95.30;;;;;;5010629;28;20042;-71
2021/05/24 04:37:37;;;;;;;4.00;1.08;;;10.70;95.20;;;;;;5011018;28;20045;-71
2021/05/24 04:40:05;;;;;;;4.30;1.25;;;10.70;95.10;;;;;;4993732;28;20026;-71
2021/05/24 04:42:40;;;;;;;3.08;1.38;;;10.70;95.30;;;;;;5011183;28;20099;-71
2021/05/24 04:48:41;;;;;;;3.20;0.85;;;10.80;95.30;;;;;;4973097;28;20105;-70
2021/05/24 04:51:06;;;;;;;2.47;0.82;;;10.90;95.40;;;;;;4971847;28;20027;-71
2021/05/24 04:53:32;;;;;;;3.90;1.00;;;10.90;95.40;;;;;;4956205;28;20034;-71
2021/05/24 04:55:58;;;;;;;3.30;0.95;;;11.00;95.30;;;;;;4971574;28;20345;-71
2021/05/24 04:58:24;;;;;;;3.78;1.25;;;11.10;95.30;;;;;;4970874;28;20102;-71
2021/05/24 05:00:50;;;;;;;8.35;0.88;;;11.20;95.30;;;;;;4970885;28;20070;-71
2021/05/24 05:03:16;;;;;;;3.95;1.10;;;11.20;95.10;;;;;;4971847;28;20429;-70
2021/05/24 05:05:42;;;;;;;0.90;0.55;;;11.30;95.10;;;;;;4973401;28;20027;-70
2021/05/24 05:08:08;;;;;;;2.17;0.80;;;11.50;95.00;;;;;;4953836;28;20100;-70
2021/05/24 05:10:34;;;;;;;2.05;1.00;;;11.50;94.90;;;;;;4971350;28;20131;-72
2021/05/24 05:12:59;;;;;;;2.40;0.88;;;11.60;94.80;;;;;;4971320;28;20110;-71
2021/05/24 05:15:25;;;;;;;2.75;0.75;;;11.70;94.70;;;;;;4970436;28;20460;-71
2021/05/24 05:17:51;;;;;;;2.42;0.80;;;11.80;94.60;;;;;;4972643;28;20027;-71
2021/05/24 05:20:16;;;;;;;5.25;0.82;;;11.90;94.50;;;;;;4971270;28;20515;-71
2021/05/24 05:22:42;;;;;;;6.03;1.20;;;12.00;94.40;;;;;;4970993;28;20053;-72
2021/05/24 05:25:09;;;;;;;1.58;0.90;;;12.00;94.30;;;;;;4969999;28;20461;-72
2021/05/24 05:27:35;;;;;;;1.58;0.70;;;12.20;94.20;;;;;;4971049;28;20043;-70
2021/05/24 05:30:00;;;;;;;1.35;0.63;;;12.30;94.20;;;;;;4970880;28;20069;-72
2021/05/24 05:32:26;;;;;;;4.13;1.42;;;12.40;94.10;;;;;;4972510;28;20031;-71
2021/05/24 05:34:52;;;;;;;2.60;1.00;;;12.60;94.00;;;;;;4971237;28;20043;-71
2021/05/24 05:37:20;;;;;;;2.42;0.77;;;12.80;93.60;;;;;;4970750;28;20035;-71
2021/05/24 05:39:49;;;;;;;2.55;0.75;;;13.00;93.30;;;;;;4979163;28;20061;-70
2021/05/24 05:42:15;;;;;;;4.47;0.75;;;13.30;93.10;;;;;;4990233;28;20023;-71
2021/05/24 05:44:41;;;;;;;1.42;0.60;;;13.50;92.80;;;;;;4992349;28;20034;-71
2021/05/24 05:47:06;;;;;;;1.80;0.77;;;13.80;92.90;;;;;;4972773;28;20093;-71
2021/05/24 05:49:32;;;;;;;1.58;0.88;;;14.00;92.60;;;;;;4990779;28;20038;-70
2021/05/24 05:51:58;;;;;;;3.28;0.90;;;14.20;92.10;;;;;;4990460;28;20030;-71
2021/05/24 05:54:23;;;;;;;1.35;0.70;;;14.20;92.00;;;;;;4990113;28;20445;-70
2021/05/24 05:56:49;;;;;;;4.13;0.80;;;14.20;91.90;;;;;;4992089;28;20038;-70
2021/05/24 05:59:19;;;;;;;3.83;1.00;;;14.40;91.80;;;;;;4990302;28;20113;-70
2021/05/24 06:01:45;;;;;;;3.03;0.93;;;14.70;92.00;;;;;;4973115;28;20042;-69
2021/05/24 06:04:11;;;;;;;4.20;0.60;;;14.90;91.70;;;;;;4990408;28;20419;-71
2021/05/24 06:06:36;;;;;;;1.85;0.50;;;15.10;91.60;;;;;;4990354;28;20153;-70
2021/05/24 06:09:02;;;;;;;3.17;0.98;;;15.40;91.30;;;;;;4990176;28;20026;-71
2021/05/24 06:11:28;;;;;;;1.50;0.60;;;15.80;91.00;;;;;;4991864;28;20027;-70
2021/05/24 06:13:53;;;;;;;3.78;1.20;;;16.20;90.40;;;;;;4972738;28;20088;-70
2021/05/24 06:16:19;;;;;;;1.38;0.75;;;16.30;89.60;;;;;;4972581;28;20038;-71
2021/05/24 06:18:45;;;;;;;2.80;0.68;;;16.40;89.90;;;;;;4990055;28;20054;-70
2021/05/24 06:21:10;;;;;;;2.92;0.70;;;16.40;88.70;;;;;;4989982;28;20136;-70
2021/05/24 06:23:36;;;;;;;2.60;1.50;;;16.30;88.20;;;;;;4991516;28;20065;-71
2021/05/24 06:26:02;;;;;;;4.97;1.65;;;16.30;88.30;;;;;;4992757;28;20088;-70
2021/05/24 06:28:27;;;;;;;4.93;2.70;;;16.40;88.10;;;;;;4994233;28;20038;-71
2021/05/24 06:30:53;;;;;;;3.08;0.80;;;16.50;87.50;;;;;;4994085;28;20044;-70
2021/05/24 06:33:19;;;;;;;2.25;0.52;;;16.80;87.50;;;;;;4994159;28;20136;-70
2021/05/24 06:35:44;;;;;;;4.60;0.60;;;16.80;85.70;;;;;;4995484;28;20085;-72
2021/05/24 06:38:10;;;;;;;1.63;0.70;;;16.60;86.00;;;;;;4993411;28;20125;-71
2021/05/24 06:40:36;;;;;;;1.67;0.85;;;16.60;86.20;;;;;;4994142;28;20113;-74
2021/05/24 06:43:02;;;;;;;4.35;1.70;;;16.50;85.80;;;;;;4993710;28;20060;-71
2021/05/24 06:45:28;;;;;;;3.75;1.10;;;16.60;86.40;;;;;;4992827;28;20039;-72
2021/05/24 06:48:01;;;;;;;2.55;0.75;;;16.50;86.00;;;;;;4995482;28;20045;-72
2021/05/24 06:50:37;;;;;;;3.58;0.50;;;16.60;86.10;;;;;;4994142;28;20038;-83
2021/05/24 07:00:17;;;;;;;1.55;0.52;;;16.30;86.20;;;;;;4972891;28;20082;-73
2021/05/24 07:02:47;;;;;;;1.20;0.40;;;16.50;86.40;;;;;;5006985;28;20034;-76
2021/05/24 07:05:13;;;;;;;3.00;0.60;;;16.70;86.00;;;;;;5012770;28;20054;-75
2021/05/24 07:07:39;;;;;;;0.68;0.40;;;16.70;85.10;;;;;;4995071;28;20072;-76
2021/05/24 07:10:07;;;;;;;1.55;0.60;;;16.60;84.40;;;;;;4995343;28;20460;-75
2021/05/24 07:12:32;;;;;;;1.63;0.73;;;16.70;83.90;;;;;;4995435;28;20092;-75
2021/05/24 07:14:58;;;;;;;3.85;0.73;;;16.80;83.70;;;;;;4996574;28;20526;-73
2021/05/24 07:17:24;;;;;;;1.60;0.60;;;16.80;82.70;;;;;;5013022;28;20034;-79
2021/05/24 07:19:51;;;;;;;1.02;0.60;;;16.80;82.40;;;;;;4995003;28;20398;-74
2021/05/24 07:22:17;;;;;;;3.15;0.60;;;16.90;81.90;;;;;;4991364;28;20081;-72
2021/05/24 07:24:42;;;;;;;3.40;0.50;;;17.10;82.00;;;;;;4972826;28;20408;-74
2021/05/24 07:27:08;;;;;;;3.33;0.57;;;17.30;81.80;;;;;;4972444;28;20022;-72
2021/05/24 07:29:34;;;;;;;1.70;0.77;;;17.40;80.70;;;;;;4975304;28;20031;-73
2021/05/24 07:31:59;;;;;;;0.77;0.45;;;17.50;80.60;;;;;;4973634;28;20430;-72
2021/05/24 07:34:25;;;;;;;5.32;0.70;;;17.80;79.70;;;;;;4973886;28;20035;-72
2021/05/24 07:36:51;;;;;;;2.78;0.55;;;18.00;79.20;;;;;;4973136;28;20384;-71
2021/05/24 07:39:17;;;;;;;1.70;0.68;;;18.40;78.90;;;;;;4973416;28;20700;-71
2021/05/24 07:41:43;;;;;;;2.45;0.55;;;18.80;78.00;;;;;;4975113;28;20027;-73
2021/05/24 07:44:25;;;;;;;1.50;0.47;;;19.30;76.40;;;;;;4973477;28;20039;-71
2021/05/24 07:46:51;;;;;;;4.22;0.80;;;19.80;74.80;;;;;;4973002;28;20070;-71
2021/05/24 07:49:18;;;;;;;4.63;1.08;;;20.40;73.40;;;;;;4973227;28;20058;-70
2021/05/24 07:51:44;;;;;;;3.97;1.40;;;21.10;71.20;;;;;;4973156;28;20037;-71
2021/05/24 07:54:10;;;;;;;8.30;1.50;;;21.50;68.90;;;;;;4973473;28;20019;-72
2021/05/24 07:56:36;;;;;;;1.55;0.60;;;22.30;68.20;;;;;;4974949;28;20456;-72
2021/05/24 07:59:01;;;;;;;1.23;0.50;;;22.90;66.50;;;;;;4972919;28;20300;-70
2021/05/24 08:01:27;;;;;;;1.25;0.50;;;23.60;65.00;;;;;;4955862;28;20046;-73
2021/05/24 08:03:53;;;;;;;2.65;0.52;;;24.40;62.40;;;;;;4973061;28;20023;-73
2021/05/24 08:06:19;;;;;;;4.07;0.60;;;25.20;59.90;;;;;;4972505;28;20344;-72
2021/05/24 08:08:46;;;;;;;1.80;0.57;;;25.80;55.30;;;;;;4974557;28;20023;-70
2021/05/24 08:11:14;;;;;;;1.50;0.50;;;26.10;54.80;;;;;;4973209;28;20361;-70
2021/05/24 08:13:40;;;;;;;3.70;0.70;;;26.60;52.50;;;;;;4972977;28;20514;-70
2021/05/24 08:16:06;;;;;;;2.25;0.68;;;26.70;50.70;;;;;;4972446;28;20059;-71
2021/05/24 08:18:31;;;;;;;0.98;0.63;;;27.20;49.00;;;;;;4972628;28;20065;-73
2021/05/24 08:20:57;;;;;;;4.30;0.85;;;27.60;48.00;;;;;;4973975;28;20285;-74
2021/05/24 08:23:23;;;;;;;3.58;0.70;;;28.30;45.90;;;;;;4972520;28;20026;-73
2021/05/24 08:25:49;;;;;;;3.42;0.73;;;28.50;45.70;;;;;;4955020;28;20035;-74
2021/05/24 08:28:16;;;;;;;7.90;0.85;;;29.10;44.40;;;;;;4972359;28;20027;-71
2021/05/24 08:30:43;;;;;;;1.35;0.50;;;29.70;45.50;;;;;;4971411;28;20039;-74
2021/05/24 08:33:08;;;;;;;1.75;0.60;;;30.40;42.70;;;;;;4955447;28;20022;-78
2021/05/24 08:35:34;;;;;;;2.50;0.88;;;30.70;41.00;;;;;;4973744;28;20057;-72
2021/05/24 08:38:00;;;;;;;2.50;0.68;;;31.00;40.00;;;;;;4971963;28;20038;-74
2021/05/24 08:40:26;;;;;;;1.60;0.50;;;31.00;39.00;;;;;;4971618;28;20039;-74
2021/05/24 08:42:55;;;;;;;2.70;0.70;;;30.70;36.90;;;;;;4972092;28;20093;-70
2021/05/24 08:45:21;;;;;;;2.38;1.08;;;30.70;37.20;;;;;;4972219;28;20122;-70
2021/05/24 08:47:51;;;;;;;2.60;0.80;;;30.60;37.30;;;;;;4973038;28;20030;-71
2021/05/24 08:50:17;;;;;;;4.35;0.75;;;31.20;37.50;;;;;;4954242;28;20062;-70
2021/05/24 08:52:43;;;;;;;1.60;0.68;;;31.20;36.00;;;;;;4971818;28;20035;-72
2021/05/24 08:55:11;;;;;;;3.90;1.30;;;31.40;35.60;;;;;;4971839;28;20082;-75
2021/05/24 08:57:42;;;;;;;2.10;0.77;;;31.50;36.70;;;;;;4971713;28;20040;-71
2021/05/24 09:00:13;;;;;;;0.88;0.60;;;31.40;34.30;;;;;;4971933;28;20050;-70
2021/05/24 09:02:47;;;;;;;3.42;1.20;;;31.40;34.40;;;;;;4956417;28;20555;-71
2021/05/24 09:05:13;;;;;;;4.65;0.93;;;31.40;34.60;;;;;;4972037;28;20122;-74
2021/05/24 09:07:53;;;;;;;3.53;2.05;;;31.60;34.50;;;;;;4971386;28;20093;-70
2021/05/24 09:10:21;;;;;;;1.98;0.77;;;31.90;32.60;;;;;;4970397;28;20556;-71
2021/05/24 09:12:47;;;;;;;0.77;0.50;;;31.40;32.50;;;;;;4971327;28;20108;-76
2021/05/24 09:15:15;;;;;;;2.88;0.60;;;30.60;32.10;;;;;;4971087;28;20070;-77
2021/05/24 09:17:49;;;;;;;2.40;0.45;;;30.20;33.20;;;;;;4990965;28;20030;-76
2021/05/24 09:20:23;;;;;;;2.95;0.70;;;29.50;32.80;;;;;;4993002;28;20463;-75
2021/05/24 09:23:19;;;;;;;2.15;0.57;;;29.00;33.80;;;;;;4993098;28;20061;-77
2021/05/24 09:25:48;;;;;;;1.08;0.50;;;28.90;34.30;;;;;;4992734;28;20038;-75
2021/05/24 09:28:35;;;;;;;1.95;0.55;;;29.00;33.40;;;;;;5009079;28;20109;-77
2021/05/24 09:31:43;;;;;;;3.55;0.40;;;27.70;34.20;;;;;;5010613;28;20060;-76
2021/05/24 09:34:08;;;;;;;2.60;0.40;;;27.40;35.10;;;;;;4978415;28;20259;-73
2021/05/24 09:36:50;;;;;;;3.13;0.50;;;27.40;35.50;;;;;;5009849;28;20045;-74
2021/05/24 09:39:16;;;;;;;3.45;0.38;;;27.50;35.50;;;;;;5009710;28;20014;-81
2021/05/24 09:41:46;;;;;;;1.77;0.47;;;26.70;36.70;;;;;;4993912;28;20358;-78
2021/05/24 09:44:32;;;;;;;3.75;0.55;;;26.20;36.80;;;;;;5010283;28;20355;-88
2021/05/24 09:46:58;;;;;;;0.65;0.32;;;26.00;37.70;;;;;;4992893;28;20034;-84
2021/05/24 09:49:37;;;;;;;4.63;0.80;;;25.90;38.20;;;;;;4993403;28;20029;-85
2021/05/24 09:52:03;;;;;;;1.27;0.38;;;25.80;37.90;;;;;;5009919;28;20038;-84
2021/05/24 09:54:32;;;;;;;4.00;0.55;;;25.60;38.10;;;;;;5010054;28;20030;-87
2021/05/24 09:57:00;;;;;;;1.27;0.35;;;25.40;39.10;;;;;;5011655;28;20501;-81
2021/05/24 09:59:36;;;;;;;5.82;0.70;;;24.90;39.80;;;;;;4992023;28;20456;-73
2021/05/24 10:02:05;;;;;;;0.95;0.45;;;24.50;40.80;;;;;;5009596;28;20473;-74
2021/05/24 10:04:47;;;;;;;1.42;0.85;;;24.50;40.90;;;;;;5004892;28;20068;-70
2021/05/24 10:07:13;;;;;;;10.32;1.45;;;24.50;41.20;;;;;;4990264;28;20360;-70
2021/05/24 10:10:17;;;;;;;1.75;1.00;;;24.60;41.90;;;;;;4972510;28;20046;-72
2021/05/24 10:12:43;;;;;;;3.30;1.55;;;24.40;41.50;;;;;;4979769;28;20038;-71
2021/05/24 10:15:35;;;;;;;4.13;0.90;;;24.20;42.20;;;;;;4970369;28;20138;-70
2021/05/24 10:18:46;;;;;;;1.65;0.60;;;23.80;42.70;;;;;;4953918;28;20122;-70
2021/05/24 10:21:12;;;;;;;1.45;0.43;;;23.30;43.20;;;;;;4970752;28;20448;-69
2021/05/24 10:23:38;;;;;;;1.23;0.60;;;22.80;43.50;;;;;;4972447;28;20031;-72
2021/05/24 10:26:08;;;;;;;2.40;0.77;;;22.60;44.30;;;;;;4970455;28;20101;-73
2021/05/24 10:28:34;;;;;;;1.67;0.45;;;22.70;44.80;;;;;;4970621;28;20572;-73
2021/05/24 10:31:01;;;;;;;3.10;0.40;;;23.00;44.60;;;;;;4969453;28;20030;-74
2021/05/24 10:33:42;;;;;;;1.25;0.60;;;23.10;44.80;;;;;;4969625;28;20027;-76
2021/05/24 10:36:25;;;;;;;2.15;0.68;;;23.30;44.50;;;;;;4970542;28;20330;-75
2021/05/24 10:39:10;;;;;;;4.15;0.85;;;23.30;45.10;;;;;;4971115;28;20362;-74
2021/05/24 10:41:50;;;;;;;1.83;0.65;;;23.10;44.70;;;;;;4970875;28;20145;-73
2021/05/24 10:44:23;;;;;;;3.97;0.50;;;23.00;45.00;;;;;;4970564;28;20118;-74
2021/05/24 10:46:50;;;;;;;3.08;0.88;;;22.80;45.20;;;;;;4953854;28;20475;-75
2021/05/24 10:49:21;;;;;;;2.35;0.90;;;22.50;45.00;;;;;;4970503;28;20122;-73
2021/05/24 10:51:46;;;;;;;2.03;0.90;;;22.60;45.40;;;;;;4969655;28;20110;-74
2021/05/24 10:54:41;;;;;;;1.10;0.82;;;22.60;45.40;;;;;;4969578;28;20543;-72
2021/05/24 10:57:13;;;;;;;2.72;0.95;;;22.90;45.40;;;;;;4969086;28;20019;-73
2021/05/24 10:59:45;;;;;;;1.15;0.50;;;23.20;45.00;;;;;;4971883;28;20019;-75
2021/05/24 11:02:26;;;;;;;2.83;0.60;;;23.30;44.10;;;;;;4969960;28;20047;-77
2021/05/24 11:05:01;;;;;;;2.35;0.50;;;23.30;43.90;;;;;;4970144;28;20094;-74
2021/05/24 11:07:44;;;;;;;2.70;0.50;;;23.20;42.90;;;;;;4970180;28;20043;-73
2021/05/24 11:10:13;;;;;;;3.97;0.50;;;23.10;43.40;;;;;;4969901;28;20154;-74
2021/05/24 11:12:39;;;;;;;3.22;1.33;;;23.10;43.70;;;;;;4972525;28;20039;-73
2021/05/24 11:15:15;;;;;;;4.38;1.30;;;22.90;42.60;;;;;;4972954;28;20050;-73
2021/05/24 11:34:39;;;;;;;2.00;0.70;;;22.40;44.50;;;;;;5009573;28;20095;-75
2021/05/24 11:37:07;;;;;;;0.63;0.30;;;22.40;44.30;;;;;;4994566;28;20041;-74
2021/05/24 11:39:39;;;;;;;3.00;0.95;;;22.50;44.40;;;;;;4994709;28;20092;-74
2021/05/24 11:42:19;;;;;;;0.73;0.70;;;22.50;43.90;;;;;;5012261;28;20026;-77
2021/05/24 11:44:47;;;;;;;2.10;0.60;;;22.50;43.90;;;;;;5013853;28;20121;-76
2021/05/24 11:47:24;;;;;;;5.15;0.90;;;22.50;44.10;;;;;;5012577;28;20120;-75
2021/05/24 11:49:53;;;;;;;3.13;0.57;;;22.50;44.50;;;;;;4993843;28;20046;-73
2021/05/24 11:52:21;;;;;;;4.03;0.52;;;22.50;44.10;;;;;;5011911;28;20451;-73
2021/05/24 11:55:05;;;;;;;2.83;0.40;;;22.50;44.30;;;;;;4994579;28;20141;-79
2021/05/24 11:57:33;;;;;;;0.57;0.30;;;22.60;45.20;;;;;;4994364;28;20341;-74
2021/05/24 11:59:59;;;;;;;2.08;0.40;;;22.50;44.90;;;;;;4994053;28;20077;-77
2021/05/24 12:02:42;;;;;;;1.52;0.43;;;22.50;46.00;;;;;;4996073;28;20061;-79
2021/05/24 12:05:09;;;;;;;1.90;0.50;;;22.40;45.40;;;;;;5011724;28;20053;-79
2021/05/24 12:07:35;;;;;;;1.90;0.60;;;22.40;46.00;;;;;;5011403;28;20152;-79
2021/05/24 12:10:01;;;;;;;5.70;2.20;;;22.20;45.40;;;;;;5011419;28;20081;-79
2021/05/24 12:12:38;;;;;;;1.50;0.50;;;22.20;46.30;;;;;;5011465;28;20038;-77
2021/05/24 12:15:16;;;;;;;0.95;0.50;;;22.20;45.60;;;;;;4993650;28;20060;-74
2021/05/24 12:17:50;;;;;;;;;;;22.20;45.40;;;;;;4997144;28;20049;-85
2021/05/24 12:20:16;;;;;;;5.80;1.05;;;22.10;45.30;;;;;;5012013;28;19913;-81
2021/05/24 12:22:45;;;;;;;2.92;0.60;;;22.20;45.40;;;;;;4992808;28;20092;-72
2021/05/24 12:25:44;;;;;;;1.92;0.52;;;22.10;45.70;;;;;;5011484;28;20054;-78
2021/05/24 12:28:10;;;;;;;0.98;0.70;;;22.00;46.00;;;;;;4991515;28;20349;-76
2021/05/24 12:30:42;;;;;;;2.30;0.50;;;21.90;46.00;;;;;;4991910;28;20138;-79
2021/05/24 12:33:09;;;;;;;2.83;0.45;;;21.90;45.80;;;;;;4992434;28;20106;-74
2021/05/24 12:35:44;;;;;;;1.10;0.40;;;21.80;46.30;;;;;;4993436;28;20029;-80
2021/05/24 12:41:22;;;;;;;4.40;0.50;;;21.70;45.40;;;;;;4947969;28;20341;-73
2021/05/24 12:43:58;;;;;;;2.50;0.80;;;21.60;45.70;;;;;;4991159;28;20129;-73
2021/05/24 12:46:25;;;;;;;1.50;0.70;;;21.60;45.80;;;;;;4989406;28;20057;-83
2021/05/24 12:48:52;;;;;;;1.95;0.38;;;21.50;45.80;;;;;;4991377;28;20034;-78
2021/05/24 12:51:32;;;;;;;1.27;0.80;;;21.40;45.60;;;;;;4991214;28;20297;-75
2021/05/24 12:54:04;;;;;;;2.10;0.80;;;21.40;46.20;;;;;;4975205;28;20088;-73
2021/05/24 12:56:45;;;;;;;4.32;1.17;;;21.40;46.60;;;;;;4974614;28;20530;-78
2021/05/24 12:59:26;;;;;;;3.10;0.40;;;21.30;46.00;;;;;;4990949;28;20738;-77
2021/05/24 13:01:54;;;;;;;4.95;0.70;;;21.20;46.20;;;;;;4989889;28;20038;-78
2021/05/24 13:04:21;;;;;;;4.53;0.77;;;21.00;46.60;;;;;;4991115;28;20557;-78
2021/05/24 13:06:49;;;;;;;3.47;1.00;;;21.20;46.30;;;;;;4990990;28;20302;-76
2021/05/24 13:09:27;;;;;;;3.20;0.60;;;21.20;47.00;;;;;;4973645;28;20045;-76
2021/05/24 13:12:08;;;;;;;3.60;0.88;;;21.30;47.00;;;;;;4974712;28;20015;-76
2021/05/24 13:14:41;;;;;;;3.25;1.30;;;21.30;46.50;;;;;;4971335;28;20053;-77
2021/05/24 13:29:07;;;;;;;1.88;0.43;;;21.20;46.70;;;;;;4971395;28;20138;-78
2021/05/24 13:31:36;;;;;;;1.92;0.60;;;21.10;46.70;;;;;;4971071;28;20125;-78
2021/05/24 13:34:03;;;;;;;2.78;0.50;;;21.20;47.00;;;;;;4970521;28;20027;-78
2021/05/24 13:36:32;;;;;;;1.65;0.52;;;21.30;46.80;;;;;;4970834;28;20043;-79
2021/05/24 13:39:18;;;;;;;1.35;0.47;;;21.30;46.20;;;;;;4972791;28;20033;-79
2021/05/24 13:41:49;;;;;;;1.52;0.38;;;21.30;46.00;;;;;;4970322;28;20039;-78
2021/05/24 13:44:18;;;;;;;1.38;0.55;;;21.30;46.00;;;;;;4953786;28;20039;-78
2021/05/24 13:46:44;;;;;;;0.60;0.30;;;21.30;45.80;;;;;;4970768;28;20039;-78
2021/05/24 13:49:12;;;;;;;3.13;0.45;;;21.30;45.40;;;;;;4970696;28;20043;-78
2021/05/24 13:51:39;;;;;;;0.55;0.47;;;21.40;45.90;;;;;;4953484;28;20479;-79
2021/05/24 13:54:06;;;;;;;5.03;0.47;;;21.40;46.10;;;;;;4970501;28;20031;-79
2021/05/24 13:56:32;;;;;;;2.08;0.50;;;21.40;46.10;;;;;;4972608;28;20696;-79
2021/05/24 13:58:58;;;;;;;1.67;0.85;;;21.40;45.80;;;;;;4970675;28;20047;-80